Time;durP1;ratioP1;P1;durP2;ratioP2;P2;SDS_P1;SDS_P2;PMS_P1;PMS_P2;Temp;Humidity;BMP_temperature;BMP_pressure;BME280_temperature;BME280_humidity;BME280_pressure;Samples;Min_cycle;Max_cycle;Signal;HPM_P1;HPM_P2
2021/03/06 00:01:00;;;;;;;5.82;3.53;;;2.90;99.90;;;;;;4156944;28;20037;-70
2021/03/06 00:03:01;;;;;;;4.50;3.08;;;2.80;99.90;;;;;;4156505;28;20409;-70
2021/03/06 00:05:03;;;;;;;5.57;3.67;;;2.80;99.90;;;;;;4157186;28;20041;-70
2021/03/06 00:07:04;;;;;;;8.37;3.17;;;2.80;99.90;;;;;;4156869;28;20088;-70
2021/03/06 00:09:04;;;;;;;6.10;2.85;;;2.80;99.90;;;;;;4160405;28;20037;-70
2021/03/06 00:11:05;;;;;;;5.00;3.00;;;2.80;99.90;;;;;;4154808;28;20052;-70
2021/03/06 00:13:06;;;;;;;6.15;3.05;;;2.80;99.90;;;;;;4150506;28;20716;-70
2021/03/06 00:15:15;;;;;;;5.38;2.97;;;2.80;99.90;;;;;;4153864;28;20501;-70
2021/03/06 00:17:16;;;;;;;6.30;3.50;;;2.80;99.90;;;;;;4158077;28;20516;-70
2021/03/06 00:19:16;;;;;;;5.88;3.20;;;2.80;99.90;;;;;;4149916;28;20109;-70
2021/03/06 00:21:17;;;;;;;5.30;3.20;;;2.70;99.90;;;;;;4146331;28;20048;-70
2021/03/06 00:23:18;;;;;;;6.15;3.13;;;2.70;99.90;;;;;;4150472;28;20029;-70
2021/03/06 00:25:19;;;;;;;6.90;3.33;;;2.70;99.90;;;;;;4140443;28;20033;-70
2021/03/06 00:27:20;;;;;;;4.50;2.92;;;2.60;99.90;;;;;;4151902;28;20045;-70
2021/03/06 00:29:20;;;;;;;7.18;3.40;;;2.60;99.90;;;;;;4162929;28;20072;-70
2021/03/06 00:31:21;;;;;;;4.38;3.03;;;2.60;99.90;;;;;;4157949;28;20509;-70
2021/03/06 00:33:22;;;;;;;5.90;3.55;;;2.60;99.90;;;;;;4158630;28;20094;-70
2021/03/06 00:35:22;;;;;;;6.10;3.53;;;2.60;99.90;;;;;;4158445;28;20044;-70
2021/03/06 00:37:23;;;;;;;5.97;3.50;;;2.60;99.90;;;;;;4157951;28;20030;-70
2021/03/06 00:39:23;;;;;;;6.95;3.50;;;2.60;99.90;;;;;;4156989;28;20076;-70
2021/03/06 00:41:24;;;;;;;8.00;3.20;;;2.60;99.90;;;;;;4158105;28;20366;-70
2021/03/06 00:43:25;;;;;;;6.53;3.60;;;2.60;99.90;;;;;;4139542;28;20460;-70
2021/03/06 00:45:28;;;;;;;6.68;4.00;;;2.60;99.90;;;;;;4156868;28;20034;-70
2021/03/06 00:47:29;;;;;;;6.57;3.97;;;2.50;99.90;;;;;;4156246;28;20111;-70
2021/03/06 00:49:30;;;;;;;6.30;3.45;;;2.50;99.90;;;;;;4148175;28;20041;-70
2021/03/06 00:51:30;;;;;;;8.85;3.70;;;2.50;99.90;;;;;;4145286;28;20036;-70
2021/03/06 00:53:33;;;;;;;;;;;2.50;99.90;;;;;;4146299;28;20116;-70
2021/03/06 00:55:34;;;;;;;6.35;3.33;;;2.40;99.90;;;;;;4161888;28;19916;-70
2021/03/06 00:57:37;;;;;;;7.18;3.40;;;2.40;99.90;;;;;;4158325;28;20083;-70
2021/03/06 00:59:38;;;;;;;5.35;3.42;;;2.40;99.90;;;;;;4155663;28;20021;-70
2021/03/06 01:01:38;;;;;;;5.40;3.55;;;2.40;99.90;;;;;;4157943;28;20115;-70
2021/03/06 01:03:40;;;;;;;4.82;3.17;;;2.40;99.90;;;;;;4157871;28;20485;-70
2021/03/06 01:05:40;;;;;;;6.70;3.63;;;2.40;99.90;;;;;;4146255;28;20113;-70
2021/03/06 01:07:41;;;;;;;5.05;3.20;;;2.40;99.90;;;;;;4156936;28;20120;-70
2021/03/06 01:09:42;;;;;;;6.78;3.53;;;2.40;99.90;;;;;;4131220;28;20122;-70
2021/03/06 01:11:42;;;;;;;10.50;3.35;;;2.40;99.90;;;;;;4160216;28;20029;-70
2021/03/06 01:13:43;;;;;;;5.75;3.10;;;2.40;99.90;;;;;;4155801;28;20038;-70
2021/03/06 01:15:44;;;;;;;4.72;2.88;;;2.40;99.90;;;;;;4148339;28;20084;-70
2021/03/06 01:17:45;;;;;;;7.38;3.50;;;2.40;99.90;;;;;;4156805;28;20065;-70
2021/03/06 01:19:45;;;;;;;4.75;3.00;;;2.30;99.90;;;;;;4147932;28;20521;-70
2021/03/06 01:21:47;;;;;;;8.02;3.25;;;2.30;99.90;;;;;;4155884;28;20025;-70
2021/03/06 01:23:48;;;;;;;6.10;3.38;;;2.30;99.90;;;;;;4159463;28;20147;-70
2021/03/06 01:25:49;;;;;;;5.50;2.88;;;2.30;99.90;;;;;;4166963;28;20104;-70
2021/03/06 01:27:50;;;;;;;5.18;3.65;;;2.30;99.90;;;;;;4168399;28;20532;-70
2021/03/06 01:29:51;;;;;;;5.72;3.42;;;2.20;99.90;;;;;;4159871;28;20033;-70
2021/03/06 01:31:52;;;;;;;6.80;3.50;;;2.20;99.90;;;;;;4160188;28;20063;-70
2021/03/06 01:33:52;;;;;;;6.70;3.90;;;2.20;99.90;;;;;;4157522;28;20444;-70
2021/03/06 01:35:53;;;;;;;5.70;3.50;;;2.20;99.90;;;;;;4161055;28;20060;-70
2021/03/06 01:37:54;;;;;;;5.68;3.65;;;2.20;99.90;;;;;;4160646;28;20272;-70
2021/03/06 01:39:55;;;;;;;7.65;3.92;;;2.20;99.90;;;;;;4159706;28;20409;-70
2021/03/06 01:41:55;;;;;;;7.53;4.05;;;2.20;99.90;;;;;;4160955;28;20025;-70
2021/03/06 01:43:56;;;;;;;7.10;4.15;;;2.20;99.90;;;;;;4158542;28;20042;-70
2021/03/06 01:45:56;;;;;;;9.18;4.18;;;2.20;99.90;;;;;;4152565;28;20105;-70
2021/03/06 01:47:57;;;;;;;8.32;4.20;;;2.20;99.90;;;;;;4157783;28;20032;-70
2021/03/06 01:49:58;;;;;;;5.88;3.70;;;2.20;99.90;;;;;;4156029;28;20030;-70
2021/03/06 01:51:59;;;;;;;9.23;3.67;;;2.30;99.90;;;;;;4152901;28;20386;-70
2021/03/06 01:54:01;;;;;;;6.38;3.30;;;2.30;99.90;;;;;;4160566;28;20056;-70
2021/03/06 01:56:01;;;;;;;7.15;3.75;;;2.30;99.90;;;;;;4151905;28;20429;-70
2021/03/06 01:58:02;;;;;;;6.32;3.83;;;2.30;99.90;;;;;;4166157;28;20033;-70
2021/03/06 02:00:06;;;;;;;7.03;4.05;;;2.30;99.90;;;;;;4160421;28;20044;-70
2021/03/06 02:02:07;;;;;;;6.50;3.40;;;2.30;99.90;;;;;;4158403;28;20068;-70
2021/03/06 02:04:08;;;;;;;5.53;3.35;;;2.30;99.90;;;;;;4159913;28;20025;-70
2021/03/06 02:06:08;;;;;;;7.95;3.63;;;2.30;99.90;;;;;;4159242;28;20670;-70
2021/03/06 02:08:10;;;;;;;8.02;4.22;;;2.20;99.90;;;;;;4159638;28;20445;-70
2021/03/06 02:10:13;;;;;;;7.47;4.35;;;2.20;99.90;;;;;;4160288;28;20018;-70
2021/03/06 02:12:48;;;;;;;6.22;4.18;;;2.20;99.90;;;;;;4158657;28;20083;-70
2021/03/06 02:15:10;;;;;;;6.55;3.83;;;2.20;99.90;;;;;;4135255;28;20025;-70
2021/03/06 02:17:21;;;;;;;6.13;3.67;;;2.10;99.90;;;;;;4160247;28;20034;-70
2021/03/06 02:19:41;;;;;;;7.07;3.65;;;2.10;99.90;;;;;;4155879;28;20712;-70
2021/03/06 02:22:09;;;;;;;7.63;4.15;;;2.10;99.90;;;;;;4154929;28;20044;-70
2021/03/06 02:24:09;;;;;;;5.75;3.53;;;2.10;99.90;;;;;;4156140;28;20088;-70
2021/03/06 02:26:43;;;;;;;6.05;3.50;;;2.10;99.90;;;;;;4157837;28;20113;-70
2021/03/06 02:29:06;;;;;;;8.70;3.95;;;2.00;99.90;;;;;;4159494;28;20095;-70
2021/03/06 02:31:10;;;;;;;7.03;3.72;;;2.10;99.90;;;;;;4148063;28;20349;-70
2021/03/06 02:33:14;;;;;;;7.45;4.28;;;2.00;99.90;;;;;;4137904;28;20120;-70
2021/03/06 02:35:27;;;;;;;7.10;3.93;;;2.00;99.90;;;;;;4155009;28;20124;-70
2021/03/06 02:37:30;;;;;;;8.57;4.40;;;2.00;99.90;;;;;;4156142;28;20267;-70
2021/03/06 02:39:32;;;;;;;9.52;3.40;;;2.00;99.90;;;;;;4159322;28;20041;-70
2021/03/06 02:41:33;;;;;;;6.25;3.83;;;2.00;99.90;;;;;;4149636;28;20045;-70
2021/03/06 02:43:34;;;;;;;9.85;4.25;;;2.00;99.90;;;;;;4167128;28;20049;-70
2021/03/06 02:45:36;;;;;;;7.85;4.07;;;2.00;99.90;;;;;;4154841;28;20037;-70
2021/03/06 02:47:37;;;;;;;7.70;4.20;;;2.00;99.90;;;;;;4160216;28;20041;-70
2021/03/06 02:49:38;;;;;;;6.55;4.10;;;2.10;99.90;;;;;;4159246;28;20064;-70
2021/03/06 02:51:42;;;;;;;6.18;3.55;;;2.00;99.90;;;;;;4138222;28;20034;-70
2021/03/06 02:53:43;;;;;;;8.95;4.50;;;2.10;99.90;;;;;;4157614;28;20111;-70
2021/03/06 02:55:44;;;;;;;8.82;4.75;;;2.10;99.90;;;;;;4156944;28;20029;-70
2021/03/06 02:58:03;;;;;;;10.75;4.15;;;2.10;99.90;;;;;;4159663;28;20288;-70
2021/03/06 03:00:13;;;;;;;7.93;4.55;;;2.10;99.90;;;;;;4156779;28;20033;-70
2021/03/06 03:02:24;;;;;;;6.80;3.95;;;2.10;99.90;;;;;;4159161;28;20038;-70
2021/03/06 03:04:33;;;;;;;7.68;3.75;;;2.10;99.90;;;;;;4159212;28;20076;-70
2021/03/06 03:06:37;;;;;;;9.07;4.20;;;2.20;99.90;;;;;;4148058;28;20044;-70
2021/03/06 03:08:59;;;;;;;8.50;4.75;;;2.20;99.90;;;;;;4127891;28;20461;-70
2021/03/06 03:11:02;;;;;;;7.15;4.38;;;2.20;99.90;;;;;;4131676;28;20494;-70
2021/03/06 03:13:10;;;;;;;6.97;4.00;;;2.20;99.90;;;;;;4157841;28;20556;-70
2021/03/06 03:15:19;;;;;;;7.95;4.25;;;2.20;99.90;;;;;;4158455;28;20087;-70
2021/03/06 03:17:27;;;;;;;9.27;4.75;;;2.20;99.90;;;;;;4153284;28;20510;-70
2021/03/06 03:19:30;;;;;;;7.90;4.53;;;2.20;99.90;;;;;;4165353;28;20041;-70
2021/03/06 03:21:34;;;;;;;8.55;4.90;;;2.20;99.90;;;;;;4133369;28;20132;-70
2021/03/06 03:23:49;;;;;;;8.23;4.05;;;2.20;99.90;;;;;;4152286;28;20116;-70
2021/03/06 03:25:50;;;;;;;9.38;4.50;;;2.20;99.90;;;;;;4156332;28;20490;-70
2021/03/06 03:27:51;;;;;;;8.27;4.30;;;2.20;99.90;;;;;;4157697;28;20029;-70
2021/03/06 03:29:52;;;;;;;9.98;4.72;;;2.20;99.90;;;;;;4161327;28;20060;-70
2021/03/06 03:31:54;;;;;;;8.48;4.80;;;2.20;99.90;;;;;;4157288;28;20069;-70
2021/03/06 03:33:55;;;;;;;9.93;4.72;;;2.10;99.90;;;;;;4157822;28;20025;-70
2021/03/06 03:36:01;;;;;;;7.70;4.25;;;2.10;99.90;;;;;;4152035;28;20030;-70
2021/03/06 03:38:02;;;;;;;6.68;4.05;;;2.00;99.90;;;;;;4150717;28;20030;-70
2021/03/06 03:40:04;;;;;;;6.65;4.13;;;2.00;99.90;;;;;;4158943;28;20030;-70
2021/03/06 03:42:09;;;;;;;7.97;4.32;;;2.00;99.90;;;;;;4150029;28;20045;-70
2021/03/06 03:44:09;;;;;;;6.18;3.60;;;1.90;99.90;;;;;;4152096;28;20041;-70
2021/03/06 03:46:11;;;;;;;6.88;3.78;;;2.00;99.90;;;;;;4148765;28;20072;-70
2021/03/06 03:48:12;;;;;;;5.80;3.60;;;2.00;99.90;;;;;;4157013;28;20029;-70
2021/03/06 03:50:14;;;;;;;6.88;4.05;;;2.00;99.90;;;;;;4160269;28;20121;-70
2021/03/06 03:52:15;;;;;;;6.43;3.85;;;1.90;99.90;;;;;;4147872;28;20083;-70
2021/03/06 03:54:16;;;;;;;6.85;3.83;;;1.90;99.90;;;;;;4148630;28;20029;-70
2021/03/06 03:56:17;;;;;;;7.82;4.10;;;1.90;99.90;;;;;;4157136;28;20708;-70
2021/03/06 03:58:19;;;;;;;5.78;3.45;;;1.90;99.90;;;;;;4158309;28;20038;-70
2021/03/06 04:00:22;;;;;;;5.55;3.80;;;1.90;99.90;;;;;;4159747;28;20067;-70
2021/03/06 04:02:23;;;;;;;5.35;3.75;;;1.90;99.90;;;;;;4155786;28;20025;-70
2021/03/06 04:04:26;;;;;;;6.38;4.15;;;1.90;99.90;;;;;;4157675;28;20504;-70
2021/03/06 04:06:27;;;;;;;7.85;4.05;;;1.90;99.90;;;;;;4152495;28;20085;-70
2021/03/06 04:08:27;;;;;;;6.35;4.22;;;1.90;99.90;;;;;;4154660;28;20026;-70
2021/03/06 04:10:28;;;;;;;5.13;3.53;;;1.90;99.90;;;;;;4154498;28;20082;-70
2021/03/06 04:12:29;;;;;;;7.78;3.88;;;1.90;99.90;;;;;;4146691;28;20061;-70
2021/03/06 04:14:30;;;;;;;7.45;3.80;;;1.90;99.90;;;;;;4153649;28;20061;-70
2021/03/06 04:16:30;;;;;;;7.95;4.20;;;1.90;99.90;;;;;;4156784;28;20029;-70
2021/03/06 04:18:31;;;;;;;6.70;3.90;;;1.80;99.90;;;;;;4154006;28;20536;-70
2021/03/06 04:20:32;;;;;;;5.65;3.92;;;1.90;99.90;;;;;;4161468;28;20478;-70
2021/03/06 04:22:33;;;;;;;8.10;3.90;;;1.90;99.90;;;;;;4156449;28;20029;-70
2021/03/06 04:24:34;;;;;;;6.47;4.10;;;1.90;99.90;;;;;;4147199;28;20053;-71
2021/03/06 04:26:35;;;;;;;5.57;3.25;;;1.90;99.90;;;;;;4158027;28;20429;-70
2021/03/06 04:28:35;;;;;;;4.75;3.22;;;1.80;99.90;;;;;;4158232;28;20075;-70
2021/03/06 04:30:36;;;;;;;9.80;4.03;;;1.80;99.90;;;;;;4154557;28;20041;-70
2021/03/06 04:32:38;;;;;;;10.38;3.97;;;1.80;99.90;;;;;;4158507;28;20040;-70
2021/03/06 04:34:38;;;;;;;5.35;3.75;;;1.80;99.90;;;;;;4158207;28;20133;-70
2021/03/06 04:36:39;;;;;;;6.63;3.92;;;1.70;99.90;;;;;;4157518;28;20033;-70
2021/03/06 04:38:39;;;;;;;6.25;3.88;;;1.70;99.90;;;;;;4158278;28;20674;-70
2021/03/06 04:40:40;;;;;;;9.27;4.13;;;1.70;99.90;;;;;;4157817;28;20111;-70
2021/03/06 04:42:42;;;;;;;7.60;3.80;;;1.70;99.90;;;;;;4156955;28;20029;-70
2021/03/06 04:44:42;;;;;;;5.72;3.70;;;1.70;99.90;;;;;;4156447;28;20248;-70
2021/03/06 04:46:43;;;;;;;8.55;4.25;;;1.70;99.90;;;;;;4155620;28;20551;-71
2021/03/06 04:48:44;;;;;;;5.40;3.55;;;1.60;99.90;;;;;;4152115;28;20521;-70
2021/03/06 04:50:44;;;;;;;7.75;4.25;;;1.60;99.90;;;;;;4156088;28;20039;-70
2021/03/06 04:52:45;;;;;;;8.45;3.75;;;1.60;99.90;;;;;;4155186;28;20025;-70
2021/03/06 04:54:46;;;;;;;7.03;3.90;;;1.60;99.90;;;;;;4158738;28;20068;-70
2021/03/06 04:56:46;;;;;;;6.30;3.80;;;1.70;99.90;;;;;;4157863;28;20037;-71
2021/03/06 04:58:47;;;;;;;6.90;3.97;;;1.60;99.90;;;;;;4156010;28;20056;-70
2021/03/06 05:00:47;;;;;;;6.20;3.75;;;1.70;99.90;;;;;;4156173;28;20092;-70
2021/03/06 05:02:48;;;;;;;6.85;4.00;;;1.70;99.90;;;;;;4150871;28;20097;-70
2021/03/06 05:04:49;;;;;;;7.88;3.85;;;1.70;99.90;;;;;;4157789;28;20056;-71
2021/03/06 05:06:49;;;;;;;7.18;3.65;;;1.70;99.90;;;;;;4138596;28;20536;-70
2021/03/06 05:08:50;;;;;;;7.07;3.97;;;1.70;99.90;;;;;;4152954;28;20529;-70
2021/03/06 05:10:51;;;;;;;6.85;3.80;;;1.70;99.90;;;;;;4157811;28;20053;-70
2021/03/06 05:12:51;;;;;;;6.30;3.95;;;1.70;99.90;;;;;;4156845;28;20038;-71
2021/03/06 05:14:52;;;;;;;5.60;3.80;;;1.60;99.90;;;;;;4157021;28;20025;-70
2021/03/06 05:16:52;;;;;;;5.82;3.75;;;1.60;99.90;;;;;;4156068;28;20046;-71
2021/03/06 05:18:53;;;;;;;8.43;4.10;;;1.60;99.90;;;;;;4156147;28;20029;-70
2021/03/06 05:20:53;;;;;;;6.70;3.63;;;1.50;99.90;;;;;;4156632;28;20087;-70
2021/03/06 05:22:54;;;;;;;7.97;3.78;;;1.50;99.90;;;;;;4156078;28;20096;-71
2021/03/06 05:24:55;;;;;;;6.43;3.78;;;1.50;99.90;;;;;;4156267;28;20038;-70
2021/03/06 05:27:04;;;;;;;8.27;4.25;;;1.50;99.90;;;;;;4157663;28;20111;-70
2021/03/06 05:29:08;;;;;;;7.00;3.97;;;1.40;99.90;;;;;;4155018;28;20080;-70
2021/03/06 05:31:08;;;;;;;6.70;3.85;;;1.40;99.90;;;;;;4154756;28;20034;-70
2021/03/06 05:33:09;;;;;;;6.15;4.20;;;1.40;99.90;;;;;;4153535;28;20482;-70
2021/03/06 05:35:10;;;;;;;6.93;3.60;;;1.40;99.90;;;;;;4155143;28;20064;-70
2021/03/06 05:37:10;;;;;;;7.50;3.58;;;1.40;99.90;;;;;;4115463;28;20037;-71
2021/03/06 05:39:11;;;;;;;5.55;3.40;;;1.40;99.90;;;;;;4157155;28;20025;-70
2021/03/06 05:41:12;;;;;;;5.55;3.58;;;1.50;99.90;;;;;;4156281;28;20038;-70
2021/03/06 05:43:14;;;;;;;8.23;3.55;;;1.50;99.90;;;;;;4158429;28;20052;-71
2021/03/06 05:45:15;;;;;;;8.15;4.35;;;1.40;99.90;;;;;;4158395;28;20091;-71
2021/03/06 05:47:17;;;;;;;5.40;3.20;;;1.40;99.90;;;;;;4158034;28;20393;-70
2021/03/06 05:49:18;;;;;;;5.75;3.67;;;1.40;99.90;;;;;;4149487;28;20389;-70
2021/03/06 05:51:20;;;;;;;7.22;4.10;;;1.40;99.90;;;;;;4155020;28;20049;-70
2021/03/06 05:53:21;;;;;;;5.43;3.42;;;1.40;99.90;;;;;;4157208;28;20036;-71
2021/03/06 05:55:24;;;;;;;7.45;4.00;;;1.40;99.90;;;;;;4152264;28;20481;-71
2021/03/06 05:57:25;;;;;;;7.50;3.92;;;1.40;99.90;;;;;;4156994;28;20485;-70
2021/03/06 05:59:28;;;;;;;5.38;3.67;;;1.40;99.90;;;;;;4160676;28;20434;-70
2021/03/06 06:01:31;;;;;;;7.13;4.03;;;1.40;99.90;;;;;;4160671;28;20100;-70
2021/03/06 06:03:32;;;;;;;5.43;3.80;;;1.40;99.90;;;;;;4161120;28;20029;-71
2021/03/06 06:05:33;;;;;;;7.63;4.22;;;1.40;99.90;;;;;;4146637;28;20034;-71
2021/03/06 06:07:39;;;;;;;7.53;3.63;;;1.30;99.90;;;;;;4159121;28;20433;-71
2021/03/06 06:09:39;;;;;;;6.00;3.58;;;1.30;99.90;;;;;;4160764;28;20034;-71
2021/03/06 06:11:40;;;;;;;6.65;3.88;;;1.30;99.90;;;;;;4160208;28;20538;-70
2021/03/06 06:13:40;;;;;;;5.90;3.53;;;1.30;99.90;;;;;;4161273;28;20521;-71
2021/03/06 06:15:41;;;;;;;5.97;3.63;;;1.20;99.90;;;;;;4161120;28;20069;-71
2021/03/06 06:17:42;;;;;;;6.35;3.88;;;1.20;99.90;;;;;;4149432;28;20313;-71
2021/03/06 06:19:42;;;;;;;9.38;4.03;;;1.20;99.90;;;;;;4157712;28;20060;-71
2021/03/06 06:21:48;;;;;;;7.85;4.43;;;1.30;99.90;;;;;;4156467;28;20030;-70
2021/03/06 06:24:03;;;;;;;7.80;3.78;;;1.30;99.90;;;;;;4149430;28;20033;-70
2021/03/06 06:26:11;;;;;;;7.03;3.45;;;1.30;99.90;;;;;;4159335;28;20083;-71
2021/03/06 06:28:12;;;;;;;6.00;3.67;;;1.30;99.90;;;;;;4160422;28;20084;-71
2021/03/06 06:30:14;;;;;;;6.22;3.55;;;1.40;99.90;;;;;;4160582;28;20029;-71
2021/03/06 06:32:18;;;;;;;6.38;3.85;;;1.40;99.90;;;;;;4164545;28;20075;-71
2021/03/06 06:34:19;;;;;;;8.95;4.45;;;1.30;99.90;;;;;;4154443;28;20029;-71
2021/03/06 06:36:38;;;;;;;9.27;3.72;;;1.30;99.90;;;;;;4159449;28;20032;-71
2021/03/06 06:38:53;;;;;;;6.40;3.53;;;1.30;99.90;;;;;;4108270;28;20037;-71
2021/03/06 06:40:55;;;;;;;7.65;3.83;;;1.30;99.90;;;;;;4157616;28;20026;-71
2021/03/06 06:42:57;;;;;;;7.95;4.00;;;1.30;99.90;;;;;;4158148;28;20075;-71
2021/03/06 06:44:59;;;;;;;7.10;4.00;;;1.30;99.90;;;;;;4159272;28;20061;-71
2021/03/06 06:47:16;;;;;;;5.43;3.50;;;1.30;99.90;;;;;;4159107;28;20036;-71
2021/03/06 06:49:17;;;;;;;6.85;4.25;;;1.40;99.90;;;;;;4155113;28;20500;-71
2021/03/06 06:51:18;;;;;;;7.38;4.35;;;1.40;99.90;;;;;;4155146;28;20050;-71
2021/03/06 06:53:25;;;;;;;7.75;4.43;;;1.40;99.90;;;;;;4159313;28;20400;-71
2021/03/06 06:55:43;;;;;;;8.38;3.97;;;1.40;99.90;;;;;;4157705;28;20037;-71
2021/03/06 06:57:52;;;;;;;6.97;3.88;;;1.50;99.90;;;;;;4157802;28;20037;-71
2021/03/06 07:00:09;;;;;;;6.28;3.90;;;1.40;99.90;;;;;;4157882;28;20037;-71
2021/03/06 07:02:10;;;;;;;7.57;4.30;;;1.50;99.90;;;;;;4159086;28;20033;-71
2021/03/06 07:04:11;;;;;;;7.75;4.00;;;1.50;99.90;;;;;;4155692;28;20094;-71
2021/03/06 07:06:13;;;;;;;7.60;4.43;;;1.60;99.90;;;;;;4145725;28;20037;-71
2021/03/06 07:08:25;;;;;;;9.40;4.30;;;1.60;99.90;;;;;;4151944;28;20384;-71
2021/03/06 07:10:46;;;;;;;7.43;4.07;;;1.60;99.90;;;;;;4148107;28;20453;-71
2021/03/06 07:12:58;;;;;;;6.43;4.10;;;1.60;99.90;;;;;;4154913;28;20090;-72
2021/03/06 07:15:00;;;;;;;7.32;3.65;;;1.70;99.90;;;;;;4153600;28;20377;-72
2021/03/06 07:17:02;;;;;;;8.75;3.70;;;1.70;99.90;;;;;;4158963;28;20122;-72
2021/03/06 07:19:03;;;;;;;7.90;3.75;;;1.70;99.90;;;;;;4156073;28;20055;-72
2021/03/06 07:21:03;;;;;;;6.60;4.28;;;1.70;99.90;;;;;;4157145;28;20033;-70
2021/03/06 07:23:23;;;;;;;8.38;4.50;;;1.70;99.90;;;;;;4156798;28;20064;-70
2021/03/06 07:25:27;;;;;;;8.57;3.83;;;1.70;99.90;;;;;;4152344;28;20052;-70
2021/03/06 07:27:28;;;;;;;8.30;4.15;;;1.70;99.90;;;;;;4157589;28;20044;-70
2021/03/06 07:29:29;;;;;;;7.93;3.95;;;1.80;99.90;;;;;;4153622;28;20565;-70
2021/03/06 07:31:36;;;;;;;6.20;4.00;;;1.80;99.90;;;;;;4157008;28;20041;-70
2021/03/06 07:33:37;;;;;;;7.70;4.55;;;1.90;99.90;;;;;;4158260;28;20033;-70
2021/03/06 07:35:40;;;;;;;5.90;4.23;;;1.90;99.90;;;;;;4155054;28;20037;-70
2021/03/06 07:37:41;;;;;;;9.63;4.10;;;1.90;99.90;;;;;;4151512;28;20333;-70
2021/03/06 07:39:47;;;;;;;7.85;4.50;;;1.90;99.90;;;;;;4158357;28;20034;-70
2021/03/06 07:41:54;;;;;;;9.18;4.40;;;2.00;99.90;;;;;;4156828;28;20216;-70
2021/03/06 07:43:57;;;;;;;12.95;5.45;;;2.00;99.90;;;;;;4155265;28;20056;-70
2021/03/06 07:45:59;;;;;;;10.98;5.45;;;2.10;99.90;;;;;;4155808;28;20116;-70
2021/03/06 07:48:09;;;;;;;15.20;4.80;;;2.10;99.90;;;;;;4153478;28;20526;-70
2021/03/06 07:50:30;;;;;;;12.85;4.75;;;2.10;99.90;;;;;;4151943;28;20394;-70
2021/03/06 07:52:32;;;;;;;7.55;4.43;;;2.20;99.90;;;;;;4148843;28;20037;-70
2021/03/06 07:54:35;;;;;;;11.02;4.80;;;2.20;99.90;;;;;;4155719;28;20424;-70
2021/03/06 07:56:40;;;;;;;15.35;5.82;;;2.30;99.90;;;;;;4139470;28;20081;-70
2021/03/06 07:58:49;;;;;;;22.08;7.97;;;2.40;99.90;;;;;;4147409;28;20041;-71
2021/03/06 08:00:58;;;;;;;25.40;8.32;;;2.50;99.90;;;;;;4150770;28;20030;-71
2021/03/06 08:02:59;;;;;;;24.27;9.38;;;2.60;99.90;;;;;;4140970;28;20544;-71
2021/03/06 08:05:01;;;;;;;27.30;10.10;;;2.70;99.90;;;;;;4149854;28;20041;-71
2021/03/06 08:07:12;;;;;;;19.08;7.88;;;2.80;99.90;;;;;;4175186;28;20056;-71
2021/03/06 08:09:12;;;;;;;16.85;6.22;;;2.90;99.90;;;;;;4149606;28;20104;-71
2021/03/06 08:11:21;;;;;;;12.85;6.32;;;3.10;99.90;;;;;;4149695;28;20061;-71
2021/03/06 08:13:38;;;;;;;10.23;5.07;;;3.20;99.90;;;;;;4157032;28;20125;-70
2021/03/06 08:15:39;;;;;;;11.57;4.40;;;3.40;99.90;;;;;;4157864;28;20505;-70
2021/03/06 08:17:40;;;;;;;8.52;5.15;;;3.60;99.90;;;;;;4146343;28;20274;-70
2021/03/06 08:19:43;;;;;;;8.30;5.03;;;3.80;99.90;;;;;;4154251;28;20220;-70
2021/03/06 08:21:44;;;;;;;9.57;4.47;;;4.10;99.90;;;;;;4146652;28;20525;-70
2021/03/06 08:23:45;;;;;;;8.95;4.75;;;4.30;99.90;;;;;;4149199;28;20030;-70
2021/03/06 08:26:17;;;;;;;10.40;4.65;;;4.60;99.90;;;;;;4158057;28;20060;-70
2021/03/06 08:28:26;;;;;;;8.48;4.70;;;5.00;99.90;;;;;;4155705;28;20573;-70
2021/03/06 08:30:27;;;;;;;7.25;4.60;;;5.30;99.90;;;;;;4169630;28;20466;-70
2021/03/06 08:32:36;;;;;;;7.50;3.92;;;5.70;99.90;;;;;;4159169;28;20493;-70
2021/03/06 08:34:48;;;;;;;5.95;3.72;;;5.90;99.90;;;;;;4152453;28;20034;-70
2021/03/06 08:36:49;;;;;;;6.53;3.85;;;6.00;99.90;;;;;;4153346;28;20043;-71
2021/03/06 08:38:49;;;;;;;9.23;4.40;;;6.10;99.90;;;;;;4148688;28;20060;-70
2021/03/06 08:40:53;;;;;;;7.03;4.03;;;6.10;99.90;;;;;;4157451;28;20033;-70
2021/03/06 08:42:55;;;;;;;6.47;3.42;;;6.20;99.90;;;;;;4155497;28;20033;-71
2021/03/06 08:45:23;;;;;;;8.70;3.45;;;6.20;99.90;;;;;;4155826;28;20509;-70
2021/03/06 08:47:29;;;;;;;5.80;2.92;;;6.20;99.90;;;;;;4154373;28;20033;-70
2021/03/06 08:49:31;;;;;;;8.68;3.30;;;6.10;99.90;;;;;;4157097;28;20057;-70
2021/03/06 08:51:32;;;;;;;12.93;3.13;;;6.10;99.90;;;;;;4157495;28;20048;-71
2021/03/06 08:53:33;;;;;;;5.20;3.10;;;6.00;99.90;;;;;;4157848;28;20516;-70
2021/03/06 08:55:40;;;;;;;6.97;3.20;;;5.90;99.90;;;;;;4157642;28;20033;-71
2021/03/06 08:57:41;;;;;;;7.13;3.17;;;6.00;99.90;;;;;;4155465;28;20052;-71
2021/03/06 08:59:42;;;;;;;5.65;2.75;;;5.90;99.90;;;;;;4157251;28;20053;-71
2021/03/06 09:01:44;;;;;;;6.05;2.63;;;5.90;99.90;;;;;;4155397;28;20033;-71
2021/03/06 09:03:48;;;;;;;7.15;3.03;;;5.90;99.90;;;;;;4149458;28;20072;-71
2021/03/06 09:05:54;;;;;;;8.15;3.50;;;5.80;99.90;;;;;;4155590;28;20038;-71
2021/03/06 09:07:57;;;;;;;6.43;2.90;;;5.70;99.90;;;;;;4155634;28;20501;-71
2021/03/06 09:10:17;;;;;;;7.45;2.60;;;5.60;99.90;;;;;;4151196;28;20051;-71
2021/03/06 09:12:18;;;;;;;6.20;2.65;;;5.70;99.90;;;;;;4145035;28;20286;-71
2021/03/06 09:14:19;;;;;;;6.30;3.08;;;5.70;99.90;;;;;;4157138;28;20069;-71
2021/03/06 09:16:19;;;;;;;4.68;2.60;;;5.80;99.90;;;;;;4155637;28;20402;-70
2021/03/06 09:18:23;;;;;;;6.72;2.55;;;5.70;99.90;;;;;;4154732;28;20048;-70
2021/03/06 09:20:24;;;;;;;11.75;3.28;;;5.60;99.90;;;;;;4147452;28;20084;-71
2021/03/06 09:22:25;;;;;;;7.97;2.80;;;5.50;99.90;;;;;;4148856;28;20729;-70
2021/03/06 09:24:42;;;;;;;9.00;2.85;;;5.40;99.90;;;;;;4156434;28;20072;-70
2021/03/06 09:26:53;;;;;;;10.68;2.78;;;5.50;99.90;;;;;;4156026;28;20033;-71
2021/03/06 09:28:56;;;;;;;8.45;2.80;;;5.50;99.90;;;;;;4174497;28;20041;-70
2021/03/06 09:30:58;;;;;;;5.38;2.28;;;5.60;99.90;;;;;;4152356;28;20181;-71
2021/03/06 09:32:59;;;;;;;6.75;2.33;;;5.60;99.90;;;;;;4155308;28;20037;-71
2021/03/06 09:35:11;;;;;;;6.45;2.30;;;5.60;99.90;;;;;;4154244;28;20033;-71
2021/03/06 09:37:16;;;;;;;6.22;2.38;;;5.60;99.90;;;;;;4160282;28;20034;-71
2021/03/06 09:39:23;;;;;;;7.50;2.65;;;5.60;99.90;;;;;;4157421;28;20092;-71
2021/03/06 09:41:33;;;;;;;8.90;2.47;;;5.80;99.90;;;;;;4159368;28;20136;-71
2021/03/06 09:43:36;;;;;;;7.45;2.30;;;5.90;99.90;;;;;;4160105;28;20049;-71
2021/03/06 09:45:37;;;;;;;6.80;2.50;;;6.00;99.90;;;;;;4163901;28;20628;-71
2021/03/06 09:47:38;;;;;;;9.52;2.63;;;6.10;99.90;;;;;;4159345;28;20042;-71
2021/03/06 09:49:39;;;;;;;7.18;2.45;;;6.20;99.90;;;;;;4158825;28;20037;-71
2021/03/06 09:51:53;;;;;;;9.57;2.63;;;6.30;99.90;;;;;;4159136;28;20136;-71
2021/03/06 09:53:58;;;;;;;7.80;2.92;;;6.20;99.90;;;;;;4160543;28;20030;-71
2021/03/06 09:56:11;;;;;;;8.77;2.83;;;6.20;99.90;;;;;;4159820;28;20393;-71
2021/03/06 09:58:20;;;;;;;9.00;2.80;;;6.20;99.90;;;;;;4159599;28;20049;-71
2021/03/06 10:00:26;;;;;;;10.10;2.90;;;6.20;99.90;;;;;;4157510;28;20034;-71
2021/03/06 10:02:26;;;;;;;6.97;2.20;;;6.40;99.90;;;;;;4151717;28;20204;-71
2021/03/06 10:04:28;;;;;;;7.05;2.63;;;6.70;99.90;;;;;;4138887;28;20069;-70
2021/03/06 10:06:33;;;;;;;8.23;2.70;;;6.90;99.90;;;;;;4154832;28;20056;-70
2021/03/06 10:08:41;;;;;;;4.97;2.00;;;6.80;99.90;;;;;;4158889;28;20497;-71
2021/03/06 10:10:42;;;;;;;6.90;1.70;;;6.80;99.90;;;;;;4156433;28;20042;-71
2021/03/06 10:12:45;;;;;;;6.32;1.83;;;6.90;99.90;;;;;;4157466;28;20112;-70
2021/03/06 10:14:50;;;;;;;10.40;2.10;;;6.80;99.90;;;;;;4159245;28;20437;-70
2021/03/06 10:16:56;;;;;;;7.97;1.90;;;6.80;99.90;;;;;;4155773;28;20029;-70
2021/03/06 10:19:01;;;;;;;5.93;1.77;;;6.90;99.90;;;;;;4154805;28;20053;-70
2021/03/06 10:21:09;;;;;;;5.78;1.77;;;7.00;99.90;;;;;;4159661;28;20094;-70
2021/03/06 10:23:12;;;;;;;3.83;1.50;;;6.90;99.90;;;;;;4158100;28;20029;-70
2021/03/06 10:25:33;;;;;;;6.22;1.90;;;6.90;99.90;;;;;;4154249;28;20046;-71
2021/03/06 10:27:38;;;;;;;6.35;2.33;;;6.90;99.90;;;;;;4157920;28;20551;-71
2021/03/06 10:29:39;;;;;;;3.10;1.63;;;6.80;99.90;;;;;;4159305;28;20051;-71
2021/03/06 10:31:39;;;;;;;5.43;2.10;;;6.90;99.90;;;;;;4157071;28;20033;-71
2021/03/06 10:33:40;;;;;;;6.50;2.30;;;7.10;99.90;;;;;;4157072;28;20045;-71
2021/03/06 10:35:43;;;;;;;7.47;2.13;;;7.30;99.90;;;;;;4158457;28;20037;-70
2021/03/06 10:37:53;;;;;;;6.20;1.90;;;7.40;99.90;;;;;;4159253;28;20313;-71
2021/03/06 10:40:03;;;;;;;6.50;3.00;;;7.40;99.90;;;;;;4157050;28;20096;-71
2021/03/06 10:42:04;;;;;;;6.07;2.78;;;7.50;99.90;;;;;;4158505;28;20439;-71
2021/03/06 10:44:05;;;;;;;7.07;2.50;;;7.60;99.90;;;;;;4156527;28;20044;-70
2021/03/06 10:46:19;;;;;;;8.30;2.30;;;7.80;99.90;;;;;;4153796;28;20557;-71
2021/03/06 10:48:32;;;;;;;5.97;2.47;;;7.90;99.90;;;;;;4154258;28;20033;-71
2021/03/06 10:50:39;;;;;;;6.38;2.47;;;7.80;99.90;;;;;;4153112;28;20068;-70
2021/03/06 10:52:40;;;;;;;6.03;2.58;;;7.50;99.90;;;;;;4155719;28;20095;-70